Time;durP1;ratioP1;P1;durP2;ratioP2;P2;SDS_P1;SDS_P2;PMS_P1;PMS_P2;Temp;Humidity;BMP_temperature;BMP_pressure;BME280_temperature;BME280_humidity;BME280_pressure;Samples;Min_cycle;Max_cycle;Signal;HPM_P1;HPM_P2
2021/12/14 00:00:36;;;;;;;8.20;4.82;;;;;;;;;;4918378;29;20031;-95
2021/12/14 00:03:02;;;;;;;8.30;3.50;;;;;;;;;;4916483;29;20040;-95
2021/12/14 00:05:39;;;;;;;6.35;2.58;;;;;;;;;;4918342;29;20028;-95
2021/12/14 00:08:35;;;;;;;6.93;3.00;;;;;;;;;;4919462;29;20032;-94
2021/12/14 00:16:08;;;;;;;10.60;3.42;;;;;;;;;;4916517;29;20032;-96
2021/12/14 00:18:34;;;;;;;5.50;3.25;;;;;;;;;;4900887;29;20498;-95
2021/12/14 00:21:03;;;;;;;11.07;4.53;;;;;;;;;;4917566;29;20062;-94
2021/12/14 00:26:16;;;;;;;8.15;4.15;;;;;;;;;;4916239;29;20528;-95
2021/12/14 00:28:45;;;;;;;9.73;3.60;;;;;;;;;;4916833;29;20079;-95
2021/12/14 00:31:14;;;;;;;6.60;3.65;;;;;;;;;;4916637;29;20083;-96
2021/12/14 00:33:41;;;;;;;13.90;7.15;;;;;;;;;;4917122;29;20696;-95
2021/12/14 00:36:08;;;;;;;11.60;3.83;;;;;;;;;;4918732;29;20649;-96
2021/12/14 00:38:35;;;;;;;9.43;3.33;;;;;;;;;;4912877;29;20032;-95
2021/12/14 00:41:08;;;;;;;10.15;4.93;;;;;;;;;;4919994;29;20048;-94
2021/12/14 00:43:34;;;;;;;11.55;4.53;;;;;;;;;;4907209;29;20047;-95
2021/12/14 00:46:00;;;;;;;7.38;3.92;;;;;;;;;;4917795;29;20541;-95
2021/12/14 00:48:27;;;;;;;11.48;4.57;;;;;;;;;;4918504;29;20092;-94
2021/12/14 00:50:54;;;;;;;7.50;4.03;;;;;;;;;;4918606;29;20025;-95
2021/12/14 00:53:21;;;;;;;9.40;3.72;;;;;;;;;;4915816;29;20091;-95
2021/12/14 00:55:48;;;;;;;10.82;4.72;;;;;;;;;;4918434;29;20095;-94
2021/12/14 00:58:15;;;;;;;5.40;3.33;;;;;;;;;;4919506;29;20050;-95
2021/12/14 01:00:53;;;;;;;9.98;4.18;;;;;;;;;;4905582;29;20031;-95
2021/12/14 01:03:19;;;;;;;;;;;;;;;;;;4906485;29;20856;-94
2021/12/14 01:05:47;;;;;;;12.57;5.05;;;;;;;;;;4904493;29;19922;-95
2021/12/14 01:08:15;;;;;;;6.38;4.30;;;;;;;;;;4918924;29;20024;-95
2021/12/14 01:10:46;;;;;;;8.23;3.58;;;;;;;;;;4918656;29;20051;-95
2021/12/14 01:13:13;;;;;;;7.03;3.15;;;;;;;;;;4904588;29;20039;-95
2021/12/14 01:15:52;;;;;;;7.88;2.90;;;;;;;;;;4900702;29;20036;-95
2021/12/14 01:18:31;;;;;;;10.55;4.40;;;;;;;;;;4916799;29;20047;-95
2021/12/14 01:21:10;;;;;;;9.25;4.82;;;;;;;;;;4918465;29;20111;-95
2021/12/14 01:23:37;;;;;;;10.18;4.53;;;;;;;;;;4915815;29;20078;-95
2021/12/14 01:26:09;;;;;;;12.55;4.07;;;;;;;;;;4915441;29;20032;-95
2021/12/14 01:28:36;;;;;;;8.27;4.10;;;;;;;;;;4918420;29;20036;-95
2021/12/14 01:31:21;;;;;;;5.90;3.27;;;;;;;;;;4920918;29;20048;-95
2021/12/14 01:33:53;;;;;;;6.97;3.42;;;;;;;;;;4917271;29;20507;-93
2021/12/14 01:36:30;;;;;;;11.30;5.88;;;;;;;;;;4916579;29;20044;-95
2021/12/14 01:39:11;;;;;;;13.60;5.85;;;;;;;;;;4906365;29;20035;-95
2021/12/14 01:41:39;;;;;;;12.40;4.88;;;;;;;;;;4907308;29;20036;-94
2021/12/14 01:44:06;;;;;;;16.02;6.00;;;;;;;;;;4906887;29;20043;-95
2021/12/14 01:46:34;;;;;;;15.07;5.97;;;;;;;;;;4921085;29;20107;-94
2021/12/14 01:49:05;;;;;;;9.77;5.28;;;;;;;;;;4919099;29;20024;-95
2021/12/14 01:51:32;;;;;;;9.10;4.95;;;;;;;;;;4918658;29;20032;-94
2021/12/14 01:53:58;;;;;;;8.98;4.05;;;;;;;;;;4916683;29;20055;-94
2021/12/14 01:56:26;;;;;;;11.07;4.88;;;;;;;;;;4918891;29;20052;-95
2021/12/14 01:58:55;;;;;;;14.98;6.30;;;;;;;;;;4915688;29;20041;-95
2021/12/14 02:01:24;;;;;;;13.50;6.32;;;;;;;;;;4902509;29;20059;-95
2021/12/14 02:04:01;;;;;;;18.42;5.35;;;;;;;;;;4916777;29;20024;-95
2021/12/14 02:06:29;;;;;;;10.45;5.18;;;;;;;;;;4909882;29;20051;-93
2021/12/14 02:09:01;;;;;;;9.88;5.10;;;;;;;;;;4907718;29;20092;-95
2021/12/14 02:11:31;;;;;;;10.23;5.28;;;;;;;;;;4917562;29;20024;-95
2021/12/14 02:13:57;;;;;;;13.85;5.03;;;;;;;;;;4899911;29;20036;-96
2021/12/14 02:16:23;;;;;;;16.45;4.38;;;;;;;;;;4919845;29;20032;-96
2021/12/14 02:18:51;;;;;;;8.70;4.53;;;;;;;;;;4918684;29;20056;-95
2021/12/14 02:21:17;;;;;;;7.45;4.10;;;;;;;;;;4916798;29;20561;-95
2021/12/14 02:23:47;;;;;;;11.38;4.97;;;;;;;;;;4903544;29;20031;-94
2021/12/14 02:26:15;;;;;;;10.23;4.70;;;;;;;;;;4916157;29;20024;-94
2021/12/14 02:28:41;;;;;;;7.25;3.30;;;;;;;;;;4900117;29;20056;-95
2021/12/14 02:31:09;;;;;;;12.98;5.00;;;;;;;;;;4902074;29;20032;-96
2021/12/14 02:33:37;;;;;;;11.60;4.88;;;;;;;;;;4913852;29;20036;-94
2021/12/14 02:36:23;;;;;;;11.75;4.60;;;;;;;;;;4917920;29;20600;-94
2021/12/14 02:38:53;;;;;;;9.93;3.83;;;;;;;;;;4917669;29;20040;-96
2021/12/14 02:41:20;;;;;;;12.10;4.53;;;;;;;;;;4918567;29;20576;-95
2021/12/14 02:43:46;;;;;;;8.40;5.50;;;;;;;;;;4916487;29;20037;-94
2021/12/14 02:46:12;;;;;;;8.30;3.45;;;;;;;;;;4918047;29;20095;-95
2021/12/14 02:48:45;;;;;;;6.43;4.40;;;;;;;;;;4902898;29;20032;-95
2021/12/14 02:51:16;;;;;;;8.18;3.90;;;;;;;;;;4915005;29;20038;-94
2021/12/14 02:53:44;;;;;;;10.50;3.83;;;;;;;;;;4915595;29;20032;-94
2021/12/14 02:56:11;;;;;;;9.70;5.00;;;;;;;;;;4905745;29;20052;-95
2021/12/14 02:58:40;;;;;;;;;;;4.20;89.60;;;;;;4904204;29;20585;-94
2021/12/14 03:01:07;;;;;;;14.70;4.25;;;;;;;;;;4904405;29;19907;-96
2021/12/14 03:03:33;;;;;;;10.57;4.28;;;;;;;;;;4913761;29;20119;-95
2021/12/14 03:06:00;;;;;;;12.27;4.80;;;;;;;;;;4916316;29;20091;-96
2021/12/14 03:08:37;;;;;;;8.88;4.32;;;;;;;;;;4919316;29;20179;-96
2021/12/14 03:11:13;;;;;;;11.70;4.20;;;;;;;;;;4916424;29;20040;-94
2021/12/14 03:13:41;;;;;;;10.35;4.28;;;;;;;;;;4914339;29;20036;-96
2021/12/14 03:16:14;;;;;;;8.05;4.88;;;;;;;;;;4916398;29;20040;-94
2021/12/14 03:18:41;;;;;;;7.63;4.13;;;;;;;;;;4917862;29;20043;-94
2021/12/14 03:21:10;;;;;;;5.75;4.05;;;;;;;;;;4908761;29;20036;-96
2021/12/14 03:23:39;;;;;;;7.70;4.63;;;;;;;;;;4915376;29;20048;-95
2021/12/14 03:26:09;;;;;;;13.60;4.65;;;;;;;;;;4916857;29;20029;-95
2021/12/14 03:28:37;;;;;;;11.95;5.55;;;;;;;;;;4918192;29;20687;-95
2021/12/14 03:31:05;;;;;;;13.90;6.50;;;;;;;;;;4917740;29;20028;-95
2021/12/14 03:33:37;;;;;;;16.00;6.75;;;;;;;;;;4917653;29;20486;-95
2021/12/14 03:36:06;;;;;;;13.27;6.97;;;;;;;;;;4915295;29;20036;-96
2021/12/14 03:38:35;;;;;;;20.55;7.25;;;;;;;;;;4917661;29;20099;-95
2021/12/14 03:41:06;;;;;;;17.10;7.45;;;;;;;;;;4917752;29;20084;-96
2021/12/14 03:43:32;;;;;;;13.95;5.55;;;;;;;;;;4915230;29;20178;-95
2021/12/14 03:45:58;;;;;;;11.80;5.88;;;;;;;;;;4913993;29;20024;-96
2021/12/14 03:48:26;;;;;;;9.50;5.03;;;;;;;;;;4913661;29;20040;-94
2021/12/14 03:50:52;;;;;;;8.35;4.03;;;;;;;;;;4916273;29;20024;-96
2021/12/14 03:53:19;;;;;;;8.50;5.05;;;;;;;;;;4904854;29;20069;-95
2021/12/14 03:55:51;;;;;;;10.35;4.80;;;;;;;;;;4902565;29;20043;-95
2021/12/14 03:58:20;;;;;;;12.40;5.38;;;;;;;;;;4912792;29;20059;-95
2021/12/14 04:00:51;;;;;;;12.10;5.65;;;;;;;;;;4899254;29;20397;-96
2021/12/14 04:03:18;;;;;;;20.63;7.18;;;;;;;;;;4914429;29;20032;-96
2021/12/14 04:05:44;;;;;;;15.80;7.90;;;;;;;;;;4907698;29;20052;-95
2021/12/14 04:08:12;;;;;;;16.38;9.10;;;;;;;;;;4917263;29;20038;-94
2021/12/14 04:10:41;;;;;;;18.63;7.50;;;;;;;;;;4919200;29;20052;-95
2021/12/14 04:13:08;;;;;;;15.95;8.90;;;;;;;;;;4906442;29;20031;-96
2021/12/14 04:15:34;;;;;;;18.20;7.43;;;;;;;;;;4900223;29;20103;-94
2021/12/14 04:18:00;;;;;;;26.58;11.43;;;;;;;;;;4920009;29;20413;-96
2021/12/14 04:20:33;;;;;;;18.95;9.73;;;;;;;;;;4917890;29;20036;-95
2021/12/14 04:23:00;;;;;;;23.42;10.13;;;;;;;;;;4917803;29;20737;-95
2021/12/14 04:25:31;;;;;;;28.13;8.93;;;;;;;;;;4907110;29;20032;-95
2021/12/14 04:27:57;;;;;;;17.58;8.93;;;;;;;;;;4919960;29;20036;-94
2021/12/14 04:30:25;;;;;;;22.83;9.95;;;;;;;;;;4917308;29;20032;-96
2021/12/14 04:32:53;;;;;;;20.48;11.27;;;;;;;;;;4903229;29;20070;-94
2021/12/14 04:35:19;;;;;;;25.58;9.50;;;;;;;;;;4910596;29;20035;-94
2021/12/14 04:37:55;;;;;;;34.80;10.63;;;;;;;;;;4918917;29;20033;-95
2021/12/14 04:51:52;;;;;;;30.77;12.05;;;;;;;;;;4913716;29;20079;-94
2021/12/14 04:52:00;;;;;;;24.60;12.00;;;;;;;;;;4917989;29;20042;-95
2021/12/14 04:54:28;;;;;;;29.58;10.77;;;;;;;;;;4916412;29;20080;-95
2021/12/14 04:56:54;;;;;;;22.50;10.02;;;;;;;;;;4910572;29;20088;-94
2021/12/14 04:59:23;;;;;;;22.50;10.60;;;;;;;;;;4919445;29;20025;-94
2021/12/14 05:01:50;;;;;;;37.88;14.73;;;;;;;;;;4917535;29;20048;-94
2021/12/14 05:04:21;;;;;;;28.70;10.55;;;;;;;;;;4916251;29;20115;-95
2021/12/14 05:06:50;;;;;;;22.92;9.77;;;;;;;;;;4918257;29;20047;-95
2021/12/14 05:09:22;;;;;;;25.60;9.65;;;;;;;;;;4918363;29;20031;-95
2021/12/14 05:11:52;;;;;;;19.08;8.35;;;;;;;;;;4910196;29;20426;-95
2021/12/14 05:14:18;;;;;;;20.23;8.80;;;;;;;;;;4919951;29;20036;-94
2021/12/14 05:16:45;;;;;;;25.40;10.48;;;;;;;;;;4924180;29;20040;-95
2021/12/14 05:19:12;;;;;;;22.50;9.02;;;;;;;;;;4917602;29;20024;-94
2021/12/14 05:21:46;;;;;;;27.58;9.57;;;;;;;;;;4929463;29;20036;-95
2021/12/14 05:24:14;;;;;;;19.05;7.25;;;;;;;;;;4916907;29;20032;-95
2021/12/14 05:26:41;;;;;;;23.88;9.93;;;;;;;;;;4928728;29;20024;-94
2021/12/14 05:29:09;;;;;;;24.73;9.35;;;;;;;;;;4917926;29;20055;-94
2021/12/14 05:31:40;;;;;;;27.45;9.88;;;;;;;;;;4916774;29;20127;-95
2021/12/14 05:34:07;;;;;;;19.90;7.72;;;;;;;;;;4927293;29;20032;-95
2021/12/14 05:36:33;;;;;;;22.77;9.18;;;;;;;;;;4917168;29;20055;-94
2021/12/14 05:39:28;;;;;;;26.02;10.85;;;;;;;;;;4917869;29;20160;-95
2021/12/14 05:44:33;;;;;;;23.75;9.05;;;;;;;;;;4915590;29;20028;-94
2021/12/14 05:47:01;;;;;;;21.48;9.63;;;;;;;;;;4932520;29;20425;-94
2021/12/14 05:49:28;;;;;;;28.58;9.85;;;;;;;;;;4931719;29;20040;-94
2021/12/14 05:51:55;;;;;;;21.90;10.30;;;;;;;;;;4916621;29;20036;-93
2021/12/14 05:54:26;;;;;;;25.50;10.50;;;;;;;;;;4912759;29;20657;-93
2021/12/14 05:56:54;;;;;;;30.98;11.35;;;;;;;;;;4917372;29;20055;-93
2021/12/14 05:59:24;;;;;;;13.25;7.65;;;;;;;;;;4901831;29;20032;-94
2021/12/14 06:01:51;;;;;;;25.70;12.02;;;;;;;;;;4914745;29;20047;-93
2021/12/14 06:04:17;;;;;;;22.48;11.80;;;;;;;;;;4908353;29;20044;-94
2021/12/14 06:06:46;;;;;;;32.90;14.73;;;;;;;;;;4917111;29;20489;-93
2021/12/14 06:09:14;;;;;;;40.65;12.65;;;;;;;;;;4898962;29;20079;-94
2021/12/14 06:11:40;;;;;;;25.08;13.38;;;;;;;;;;4899719;29;20020;-94
2021/12/14 06:14:17;;;;;;;18.25;9.52;;;;;;;;;;4913445;29;20036;-95
2021/12/14 06:16:44;;;;;;;21.63;9.88;;;;;;;;;;4912321;29;20040;-92
2021/12/14 06:19:16;;;;;;;22.03;11.33;;;;;;;;;;4915303;29;20028;-94
2021/12/14 06:21:42;;;;;;;19.15;9.55;;;;;;;;;;4914492;29;20032;-94
2021/12/14 06:24:09;;;;;;;25.02;9.35;;;;;;;;;;4896298;29;20040;-93
2021/12/14 06:26:39;;;;;;;19.92;8.35;;;;;;;;;;4901350;29;20324;-92
2021/12/14 06:29:07;;;;;;;15.95;6.30;;;;;;;;;;4897535;29;20032;-94
2021/12/14 06:31:41;;;;;;;15.10;5.97;;;;;;;;;;4912700;29;20115;-94
2021/12/14 06:34:16;;;;;;;14.20;8.10;;;;;;;;;;4904877;29;20244;-95
2021/12/14 06:36:50;;;;;;;11.25;6.10;;;;;;;;;;4913476;29;20103;-93
2021/12/14 06:39:19;;;;;;;11.60;7.60;;;;;;;;;;4914863;29;20063;-94
2021/12/14 06:41:46;;;;;;;16.85;8.00;;;;;;;;;;4911624;29;20032;-94
2021/12/14 06:47:13;;;;;;;10.45;6.88;;;;;;;;;;4838301;29;20034;-94
2021/12/14 06:49:39;;;;;;;10.40;5.85;;;;;;;;;;4837930;29;20033;-93
2021/12/14 06:52:05;;;;;;;13.10;7.45;;;;;;;;;;4836641;29;20049;-93
2021/12/14 06:57:38;;;;;;;20.17;9.45;;;;;;;;;;4847271;29;20046;-94
2021/12/14 07:00:25;;;;;;;;;;;;;;;;;;4837061;29;20041;-93
2021/12/14 07:03:11;;;;;;;18.15;9.02;;;;;;;;;;4835135;29;20358;-93
2021/12/14 07:06:04;;;;;;;22.30;7.43;;;;;;;;;;4836536;29;20042;-93
2021/12/14 07:11:40;;;;;;;19.27;7.30;;;;;;;;;;4837554;29;20102;-96
2021/12/14 07:14:26;;;;;;;15.60;7.20;;;;;;;;;;4813366;29;20114;-94
2021/12/14 07:16:56;;;;;;;16.52;7.57;;;;;;;;;;4755182;30;20150;-93
2021/12/14 07:22:55;;;;;;;13.40;6.65;;;;;;;;;;4767121;30;20252;-93
2021/12/14 07:25:24;;;;;;;19.02;6.90;;;;;;;;;;4760482;30;20439;-93
2021/12/14 07:28:01;;;;;;;18.15;8.38;;;;;;;;;;4759869;30;20046;-94
2021/12/14 07:30:27;;;;;;;13.02;5.25;;;;;;;;;;4778603;30;20401;-93
2021/12/14 07:32:55;;;;;;;17.05;7.43;;;;;;;;;;4764350;30;20027;-91
2021/12/14 07:35:26;;;;;;;15.35;7.78;;;;;;;;;;4763958;30;20071;-94
2021/12/14 07:37:52;;;;;;;7.53;5.30;;;;;;;;;;4771234;30;20077;-92
2021/12/14 07:40:18;;;;;;;17.67;7.63;;;;;;;;;;4782707;30;20698;-93
2021/12/14 07:42:45;;;;;;;7.72;5.55;;;;;;;;;;4779918;30;20047;-93
2021/12/14 07:45:12;;;;;;;13.03;5.87;;;;;;;;;;4775384;30;20036;-93
2021/12/14 07:47:49;;;;;;;17.20;6.10;;;;;;;;;;4786691;29;20080;-93
2021/12/14 07:50:16;;;;;;;14.63;5.13;;;;;;;;;;4819824;29;20029;-92
2021/12/14 07:52:42;;;;;;;8.52;4.40;;;;;;;;;;4813907;29;20121;-93
2021/12/14 07:55:19;;;;;;;7.63;4.72;;;;;;;;;;4871301;29;20128;-94
2021/12/14 07:57:46;;;;;;;10.55;6.30;;;;;;;;;;4890305;29;20098;-93
2021/12/14 08:00:15;;;;;;;7.10;5.20;;;3.70;81.80;;;;;;4913913;29;20169;-94
2021/12/14 08:02:48;;;;;;;10.52;4.75;;;;;;;;;;4921774;29;20130;-92
2021/12/14 08:05:14;;;;;;;12.68;5.85;;;;;;;;;;4912482;29;20694;-91
2021/12/14 08:07:43;;;;;;;11.70;6.40;;;;;;;;;;4927896;29;20028;-93
2021/12/14 08:10:23;;;;;;;8.13;4.50;;;;;;;;;;4929236;29;20032;-92
2021/12/14 08:12:50;;;;;;;12.60;4.55;;;;;;;;;;4926707;29;20531;-92
2021/12/14 08:15:16;;;;;;;;;;;;;;;;;;4911763;29;20036;-92
2021/12/14 08:17:43;;;;;;;13.82;8.00;;;;;;;;;;4911692;29;19926;-91
2021/12/14 08:20:12;;;;;;;19.17;7.22;;;;;;;;;;4923285;29;20035;-92
2021/12/14 08:22:40;;;;;;;10.55;5.43;;;;;;;;;;4911653;29;20040;-92
2021/12/14 08:25:07;;;;;;;13.20;4.80;;;;;;;;;;4927030;29;20036;-91
2021/12/14 08:27:33;;;;;;;13.75;4.60;;;;;;;;;;4913466;29;20021;-92
2021/12/14 08:30:01;;;;;;;11.45;5.43;;;;;;;;;;4918198;29;20501;-90
2021/12/14 08:32:31;;;;;;;15.93;6.95;;;;;;;;;;4926025;29;20048;-90
2021/12/14 08:34:59;;;;;;;10.13;5.28;;;;;;;;;;4926879;29;20642;-93
2021/12/14 08:37:36;;;;;;;9.23;5.82;;;;;;;;;;4921176;29;20069;-92
2021/12/14 08:40:11;;;;;;;9.90;6.03;;;;;;;;;;4914074;29;20055;-91
2021/12/14 08:42:50;;;;;;;9.88;4.15;;;4.30;81.50;;;;;;4924685;29;20093;-91
2021/12/14 08:45:26;;;;;;;10.88;5.18;;;;;;;;;;4910514;29;20029;-92
2021/12/14 08:47:52;;;;;;;16.02;5.85;;;;;;;;;;4929183;29;20025;-95
2021/12/14 08:50:19;;;;;;;14.57;4.82;;;;;;;;;;4920340;29;20123;-92
2021/12/14 08:52:45;;;;;;;8.85;4.57;;;;;;;;;;4911661;29;20078;-92
2021/12/14 08:55:14;;;;;;;10.45;4.65;;;;;;;;;;4917100;29;20048;-96
2021/12/14 08:57:41;;;;;;;8.55;4.03;;;;;;;;;;4916801;29;20052;-94
2021/12/14 09:00:12;;;;;;;;;;;;;;;;;;4925400;29;20032;-92
2021/12/14 09:02:38;;;;;;;17.52;6.85;;;;;;;;;;4916112;29;19917;-91
2021/12/14 09:05:13;;;;;;;10.65;7.13;;;;;;;;;;4914355;29;20390;-92
2021/12/14 09:07:39;;;;;;;44.60;19.10;;;;;;;;;;4916790;29;20032;-94
2021/12/14 09:10:09;;;;;;;27.65;11.05;;;;;;;;;;4920413;29;20028;-93
2021/12/14 09:12:40;;;;;;;26.45;10.18;;;;;;;;;;4919084;29;20032;-93
2021/12/14 09:15:09;;;;;;;31.73;9.57;;;;;;;;;;4914592;29;20115;-93
2021/12/14 09:17:35;;;;;;;21.77;10.13;;;;;;;;;;4931573;29;20044;-94
2021/12/14 09:20:04;;;;;;;38.65;12.85;;;;;;;;;;4916790;29;20798;-94
2021/12/14 09:22:41;;;;;;;18.23;7.82;;;8.40;67.60;;;;;;4924119;29;20060;-92
2021/12/14 09:25:08;;;;;;;16.40;7.17;;;;;;;;;;4914700;29;20032;-92
2021/12/14 09:27:34;;;;;;;21.73;7.13;;;;;;;;;;4931434;29;20064;-93
2021/12/14 09:30:00;;;;;;;11.55;6.50;;;;;;;;;;4932126;29;20351;-92
2021/12/14 09:32:28;;;;;;;10.27;5.65;;;8.70;70.70;;;;;;4930850;29;20028;-92
2021/12/14 09:34:59;;;;;;;9.52;5.13;;;9.00;69.50;;;;;;4913613;29;20085;-93
2021/12/14 09:37:26;;;;;;;7.43;4.93;;;;;;;;;;4915171;29;20047;-93
2021/12/14 09:40:05;;;;;;;9.35;4.03;;;9.30;68.60;;;;;;4931182;29;20160;-94
2021/12/14 09:42:34;;;;;;;7.78;5.35;;;;;;;;;;4913694;29;20836;-95
2021/12/14 09:45:05;;;;;;;10.32;5.35;;;;;;;;;;4916578;29;20024;-94
2021/12/14 09:47:32;;;;;;;5.53;3.55;;;;;;;;;;4916989;29;20092;-94
2021/12/14 09:50:05;;;;;;;7.03;4.50;;;;;;;;;;4914990;29;20028;-94
2021/12/14 09:52:33;;;;;;;15.00;7.57;;;;;;;;;;4928546;29;20123;-94
2021/12/14 09:55:01;;;;;;;11.02;6.15;;;;;;;;;;4914624;29;20040;-94
2021/12/14 09:57:31;;;;;;;;;;;10.60;67.80;;;;;;4935645;29;20532;-94
2021/12/14 09:59:59;;;;;;;8.25;5.93;;;;;;;;;;4917042;29;19922;-91
2021/12/14 10:02:28;;;;;;;10.05;6.80;;;;;;;;;;4919665;29;20115;-93
2021/12/14 10:04:58;;;;;;;10.02;6.95;;;10.80;69.40;;;;;;4926732;29;20176;-92
2021/12/14 10:07:25;;;;;;;13.27;7.50;;;11.10;68.00;;;;;;4908048;29;20537;-92
2021/12/14 10:09:54;;;;;;;16.30;8.50;;;10.90;68.60;;;;;;4931286;29;20119;-92
2021/12/14 10:14:52;;;;;;;6.50;4.15;;;;;;;;;;4913888;29;20028;-94
2021/12/14 10:17:20;;;;;;;11.27;4.47;;;;;;;;;;4915124;29;20048;-94
2021/12/14 10:19:46;;;;;;;12.82;6.63;;;;;;;;;;4915958;29;20054;-94
2021/12/14 10:22:15;;;;;;;15.30;7.97;;;;;;;;;;4912149;29;20041;-93
2021/12/14 10:24:41;;;;;;;13.88;7.15;;;;;;;;;;4912954;29;20048;-94
2021/12/14 10:27:16;;;;;;;21.05;8.45;;;;;;;;;;4914351;29;20040;-94
2021/12/14 10:29:42;;;;;;;12.13;7.25;;;;;;;;;;4931311;29;20561;-94
2021/12/14 10:32:13;;;;;;;11.45;5.97;;;;;;;;;;4930346;29;20575;-93
2021/12/14 10:34:41;;;;;;;11.80;6.05;;;;;;;;;;4914171;29;20060;-93
2021/12/14 10:37:19;;;;;;;23.42;9.00;;;;;;;;;;4918729;29;20079;-95
2021/12/14 10:42:52;;;;;;;11.32;7.10;;;;;;;;;;4918585;29;20067;-95
2021/12/14 10:45:19;;;;;;;7.03;5.60;;;;;;;;;;4910461;29;20092;-94
2021/12/14 10:47:45;;;;;;;14.20;6.57;;;;;;;;;;4930462;29;20560;-96
2021/12/14 10:50:14;;;;;;;13.63;7.20;;;;;;;;;;4930732;29;20096;-95
2021/12/14 10:52:40;;;;;;;9.90;6.18;;;;;;;;;;4912670;29;20078;-93
2021/12/14 10:55:34;;;;;;;13.60;7.00;;;;;;;;;;4929088;29;20128;-94
2021/12/14 10:58:01;;;;;;;13.38;6.20;;;;;;;;;;4912615;29;20084;-96
2021/12/14 11:00:33;;;;;;;22.07;6.60;;;;;;;;;;4916925;29;20036;-94
2021/12/14 11:03:02;;;;;;;8.45;4.68;;;;;;;;;;4912760;29;20095;-94
2021/12/14 11:05:30;;;;;;;27.67;8.13;;;;;;;;;;4928644;29;20020;-95
2021/12/14 11:07:56;;;;;;;12.65;6.43;;;;;;;;;;4922471;29;20032;-96
2021/12/14 11:10:38;;;;;;;17.77;7.70;;;11.40;70.20;;;;;;4929474;29;20451;-94
2021/12/14 11:13:07;;;;;;;11.27;4.55;;;11.40;70.50;;;;;;4912569;29;20032;-94
2021/12/14 11:15:41;;;;;;;12.75;6.43;;;11.50;71.00;;;;;;4913609;29;20046;-95
2021/12/14 11:18:15;;;;;;;12.48;6.22;;;11.50;70.80;;;;;;4915250;29;20048;-94
2021/12/14 11:20:47;;;;;;;15.38;6.70;;;;;;;;;;4919413;29;20031;-94
2021/12/14 11:23:16;;;;;;;11.77;6.03;;;;;;;;;;4913665;29;20035;-94
2021/12/14 11:25:52;;;;;;;13.85;5.60;;;;;;;;;;4921524;29;20498;-94
2021/12/14 11:28:40;;;;;;;9.55;5.28;;;11.90;69.10;;;;;;4915313;29;20031;-96
2021/12/14 11:31:18;;;;;;;9.60;5.13;;;;;;;;;;4930017;29;20024;-95
2021/12/14 11:34:14;;;;;;;10.23;5.05;;;;;;;;;;4912697;29;20772;-94
2021/12/14 11:36:44;;;;;;;11.88;6.28;;;;;;;;;;4908290;29;20131;-94
2021/12/14 11:39:25;;;;;;;14.63;5.95;;;12.30;71.20;;;;;;4914241;29;20065;-95
2021/12/14 11:41:54;;;;;;;11.05;4.63;;;;;;;;;;4913715;29;20028;-94
2021/12/14 11:44:26;;;;;;;9.63;6.20;;;;;;;;;;4927659;29;20058;-95
2021/12/14 11:46:52;;;;;;;9.10;5.20;;;;;;;;;;4916248;29;20080;-94
2021/12/14 11:49:19;;;;;;;10.73;6.88;;;;;;;;;;4915121;29;20047;-94
2021/12/14 11:51:45;;;;;;;10.82;5.72;;;;;;;;;;4927845;29;20063;-95
2021/12/14 11:54:12;;;;;;;12.73;5.95;;;;;;;;;;4912419;29;20028;-94
2021/12/14 11:56:38;;;;;;;8.15;5.15;;;;;;;;;;4929232;29;20048;-94
2021/12/14 11:59:06;;;;;;;9.35;5.10;;;12.40;67.40;;;;;;4914891;29;20024;-93
2021/12/14 12:01:39;;;;;;;9.13;4.80;;;;;;;;;;4914920;29;20088;-93
2021/12/14 12:04:08;;;;;;;10.15;4.75;;;;;;;;;;4911418;29;20032;-93
2021/12/14 12:09:32;;;;;;;12.50;6.03;;;12.50;67.70;;;;;;4914920;29;20371;-94
2021/12/14 12:12:04;;;;;;;;;;;12.30;68.80;;;;;;4918743;29;20505;-95
2021/12/14 12:14:49;;;;;;;7.95;4.75;;;12.40;69.00;;;;;;4911307;29;20615;-94
2021/12/14 12:17:41;;;;;;;8.35;5.00;;;12.30;67.90;;;;;;4911315;29;20048;-93
2021/12/14 12:20:26;;;;;;;8.77;3.95;;;;;;;;;;4915753;29;20036;-93
2021/12/14 12:23:01;;;;;;;9.93;5.03;;;12.40;66.70;;;;;;4914345;29;20068;-95
2021/12/14 12:25:27;;;;;;;9.43;4.05;;;;;;;;;;4910626;29;20062;-94
2021/12/14 12:28:13;;;;;;;5.93;3.50;;;12.10;69.10;;;;;;4929833;29;20108;-92
2021/12/14 12:30:41;;;;;;;10.65;4.28;;;;;;;;;;4916714;29;20016;-94
2021/12/14 12:33:13;;;;;;;8.57;4.28;;;;;;;;;;4916540;29;20036;-93
2021/12/14 12:35:39;;;;;;;11.32;4.72;;;;;;;;;;4929732;29;20031;-93
2021/12/14 12:38:23;;;;;;;7.28;3.85;;;11.70;68.10;;;;;;4916712;29;20032;-92
2021/12/14 12:40:59;;;;;;;11.05;6.00;;;11.50;68.80;;;;;;4922991;29;20031;-94
2021/12/14 12:43:53;;;;;;;7.22;3.97;;;11.30;69.50;;;;;;4916107;29;20035;-94
2021/12/14 12:46:23;;;;;;;7.90;4.53;;;;;;;;;;4921192;29;20405;-95
2021/12/14 12:48:59;;;;;;;9.75;4.05;;;11.20;71.40;;;;;;4918720;29;20055;-95
2021/12/14 12:51:36;;;;;;;7.33;3.97;;;;;;;;;;4917303;29;20083;-95
2021/12/14 12:54:12;;;;;;;7.93;4.00;;;;;;;;;;4917246;29;20043;-95
2021/12/14 12:56:41;;;;;;;11.93;5.97;;;;;;;;;;4919286;29;20085;-94
2021/12/14 12:59:08;;;;;;;7.60;4.50;;;;;;;;;;4900623;29;20028;-92
2021/12/14 13:01:34;;;;;;;7.38;4.88;;;;;;;;;;4905734;29;20044;-95
2021/12/14 13:04:01;;;;;;;7.43;3.72;;;;;;;;;;4899992;29;20036;-95
2021/12/14 13:06:27;;;;;;;6.00;4.05;;;;;;;;;;4902537;29;20031;-94
2021/12/14 13:08:57;;;;;;;7.85;4.00;;;;;;;;;;4916578;29;20031;-94
2021/12/14 13:11:35;;;;;;;8.10;4.47;;;;;;;;;;4917447;29;20059;-95
2021/12/14 13:14:03;;;;;;;11.10;4.43;;;;;;;;;;4915157;29;20036;-95
2021/12/14 13:16:41;;;;;;;12.90;5.10;;;10.30;76.00;;;;;;4906998;29;20040;-94
2021/12/14 13:19:13;;;;;;;10.55;4.85;;;;;;;;;;4917643;29;20043;-93
2021/12/14 13:21:42;;;;;;;8.75;4.45;;;;;;;;;;4916677;29;20032;-95
2021/12/14 13:24:32;;;;;;;9.75;4.50;;;10.20;77.20;;;;;;4913631;29;20119;-95
2021/12/14 13:27:01;;;;;;;10.48;4.78;;;;;;;;;;4896502;29;20104;-92
2021/12/14 13:29:35;;;;;;;9.90;5.35;;;10.10;76.60;;;;;;4917795;29;20035;-94
2021/12/14 13:32:10;;;;;;;11.60;4.28;;;;;;;;;;4916304;29;20040;-94
2021/12/14 13:35:02;;;;;;;9.23;4.53;;;;;;;;;;4907581;29;20036;-94
2021/12/14 13:37:34;;;;;;;13.10;4.22;;;9.80;77.90;;;;;;4867244;29;20049;-94
2021/12/14 13:40:03;;;;;;;8.88;5.07;;;9.90;78.20;;;;;;4867074;29;20029;-94
2021/12/14 13:42:34;;;;;;;7.78;3.92;;;;;;;;;;4852616;29;20094;-95
2021/12/14 13:45:04;;;;;;;10.43;4.90;;;;;;;;;;4874569;29;20041;-95
2021/12/14 13:47:31;;;;;;;9.15;3.63;;;;;;;;;;4866538;29;20029;-94
2021/12/14 13:49:59;;;;;;;8.13;4.53;;;;;;;;;;4876473;29;20025;-96
2021/12/14 13:52:25;;;;;;;9.88;5.05;;;;;;;;;;4874848;29;20039;-93
2021/12/14 13:55:06;;;;;;;12.07;3.67;;;;;;;;;;4875065;29;20467;-92
2021/12/14 13:57:33;;;;;;;8.98;4.75;;;;;;;;;;4875608;29;20056;-95
2021/12/14 14:00:01;;;;;;;11.25;4.57;;;9.50;80.20;;;;;;4861839;29;20067;-93
2021/12/14 14:02:28;;;;;;;9.75;4.75;;;;;;;;;;4870774;29;20274;-95
2021/12/14 14:04:54;;;;;;;18.10;4.70;;;;;;;;;;4873959;29;20124;-94
2021/12/14 14:07:21;;;;;;;11.07;5.53;;;;;;;;;;4876773;29;20037;-94
2021/12/14 14:09:49;;;;;;;11.13;5.95;;;;;;;;;;4877164;29;20035;-92
2021/12/14 14:12:17;;;;;;;7.93;5.25;;;;;;;;;;4875824;29;20037;-94
2021/12/14 14:14:44;;;;;;;12.80;6.25;;;;;;;;;;4901546;29;20040;-91
2021/12/14 14:17:13;;;;;;;7.13;4.53;;;;;;;;;;4915285;29;20038;-93
2021/12/14 14:19:41;;;;;;;8.48;5.05;;;;;;;;;;4916575;29;20028;-94
2021/12/14 14:22:09;;;;;;;;;;;9.70;77.70;;;;;;4916692;29;20028;-93
2021/12/14 14:24:37;;;;;;;8.60;5.20;;;;;;;;;;4896908;29;19915;-94
2021/12/14 14:27:05;;;;;;;6.90;3.28;;;;;;;;;;4914218;29;20059;-93
2021/12/14 14:29:42;;;;;;;8.27;3.90;;;;;;;;;;4915834;29;20028;-94
2021/12/14 14:32:23;;;;;;;12.32;4.15;;;;;;;;;;4902289;29;20088;-96
2021/12/14 14:34:54;;;;;;;7.70;3.83;;;;;;;;;;4910181;29;20061;-94
2021/12/14 14:37:26;;;;;;;8.48;5.03;;;;;;;;;;4910702;29;20058;-94
2021/12/14 14:40:04;;;;;;;7.78;3.83;;;;;;;;;;4918609;29;20123;-94
2021/12/14 14:42:31;;;;;;;10.10;4.63;;;;;;;;;;4904886;29;20091;-93
2021/12/14 14:45:01;;;;;;;6.53;3.67;;;;;;;;;;4912027;29;20564;-93
2021/12/14 14:47:45;;;;;;;8.20;3.03;;;;;;;;;;4915619;29;20073;-92
2021/12/14 14:50:17;;;;;;;12.93;4.97;;;;;;;;;;4916772;29;20035;-91
2021/12/14 14:52:51;;;;;;;5.53;3.92;;;;;;;;;;4913887;29;20043;-92
2021/12/14 14:55:21;;;;;;;5.75;4.13;;;;;;;;;;4909011;29;20032;-90
2021/12/14 14:58:07;;;;;;;10.35;4.70;;;;;;;;;;4913731;29;20151;-91
2021/12/14 15:00:40;;;;;;;8.30;3.00;;;;;;;;;;4895517;29;20020;-90
2021/12/14 15:03:11;;;;;;;13.43;4.60;;;;;;;;;;4907589;29;20036;-92
2021/12/14 15:05:45;;;;;;;14.35;4.68;;;7.80;80.10;;;;;;4912602;29;20040;-91
2021/12/14 15:08:14;;;;;;;9.80;5.07;;;;;;;;;;4911433;29;20051;-93
2021/12/14 15:10:46;;;;;;;6.60;3.95;;;;;;;;;;4909553;29;20562;-90
2021/12/14 15:13:31;;;;;;;22.50;4.45;;;;;;;;;;4916532;29;20036;-92
2021/12/14 15:16:15;;;;;;;13.52;5.72;;;7.50;81.70;;;;;;4908878;29;20119;-91
2021/12/14 15:18:53;;;;;;;8.98;5.00;;;;;;;;;;4898162;29;20040;-92
2021/12/14 15:21:50;;;;;;;9.98;4.90;;;7.20;82.70;;;;;;4914140;29;20028;-91